sensor_id;sensor_type;location;lat;lon;timestamp;pressure;altitude;pressure_sealevel;temperature;humidity
48796;BME280;34607;48.520;-1.330;2023-03-03T07:29:18;100988.00;;;4.41;96.75
48796;BME280;34607;48.520;-1.330;2023-03-03T07:31:49;100988.16;;;4.44;96.55
48796;BME280;34607;48.520;-1.330;2023-03-03T07:34:20;100971.97;;;4.45;96.83
48796;BME280;34607;48.520;-1.330;2023-03-03T07:36:48;100979.41;;;4.57;96.46
48796;BME280;34607;48.520;-1.330;2023-03-03T07:39:30;100989.06;;;4.62;96.04
48796;BME280;34607;48.520;-1.330;2023-03-03T07:42:02;100988.66;;;4.71;96.15
48796;BME280;34607;48.520;-1.330;2023-03-03T07:44:39;100995.72;;;4.75;95.75
48796;BME280;34607;48.520;-1.330;2023-03-03T07:47:16;100991.03;;;4.84;95.54
48796;BME280;34607;48.520;-1.330;2023-03-03T07:49:46;100966.69;;;4.76;95.82
48796;BME280;34607;48.520;-1.330;2023-03-03T07:52:22;100989.97;;;4.97;95.17
48796;BME280;34607;48.520;-1.330;2023-03-03T07:54:51;100993.94;;;5.09;95.11
48796;BME280;34607;48.520;-1.330;2023-03-03T07:57:22;100999.69;;;5.21;94.85
48796;BME280;34607;48.520;-1.330;2023-03-03T07:59:53;100994.75;;;5.25;94.76
48796;BME280;34607;48.520;-1.330;2023-03-03T08:02:34;101003.94;;;5.38;94.46
48796;BME280;34607;48.520;-1.330;2023-03-03T08:05:22;101006.94;;;5.48;93.80
48796;BME280;34607;48.520;-1.330;2023-03-03T08:07:52;101011.69;;;5.58;94.04
48796;BME280;34607;48.520;-1.330;2023-03-03T08:10:30;101013.28;;;5.74;93.67
48796;BME280;34607;48.520;-1.330;2023-03-03T08:13:08;101017.47;;;5.90;93.35
48796;BME280;34607;48.520;-1.330;2023-03-03T08:15:44;101016.97;;;5.97;92.77
48796;BME280;34607;48.520;-1.330;2023-03-03T08:18:20;101023.91;;;5.99;92.35
48796;BME280;34607;48.520;-1.330;2023-03-03T08:20:49;101032.53;;;6.00;92.57
48796;BME280;34607;48.520;-1.330;2023-03-03T08:23:17;101027.56;;;6.05;92.36
48796;BME280;34607;48.520;-1.330;2023-03-03T08:25:45;101022.38;;;6.03;91.95
48796;BME280;34607;48.520;-1.330;2023-03-03T08:28:13;101030.50;;;6.12;92.29
48796;BME280;34607;48.520;-1.330;2023-03-03T08:30:43;101035.41;;;6.26;91.92
48796;BME280;34607;48.520;-1.330;2023-03-03T08:33:10;101040.16;;;6.36;91.59
48796;BME280;34607;48.520;-1.330;2023-03-03T08:35:38;101046.47;;;6.44;91.35
48796;BME280;34607;48.520;-1.330;2023-03-03T08:38:06;101043.97;;;6.46;91.01
48796;BME280;34607;48.520;-1.330;2023-03-03T08:40:33;101043.91;;;6.44;90.94
48796;BME280;34607;48.520;-1.330;2023-03-03T08:43:00;101047.63;;;6.51;91.21
48796;BME280;34607;48.520;-1.330;2023-03-03T08:45:28;101045.41;;;6.59;91.45
48796;BME280;34607;48.520;-1.330;2023-03-03T08:47:56;101050.00;;;6.66;90.97
48796;BME280;34607;48.520;-1.330;2023-03-03T08:50:24;101050.94;;;6.68;90.86
48796;BME280;34607;48.520;-1.330;2023-03-03T08:52:51;101045.25;;;6.75;90.92
48796;BME280;34607;48.520;-1.330;2023-03-03T08:55:18;101048.91;;;6.80;90.34
48796;BME280;34607;48.520;-1.330;2023-03-03T08:57:45;101052.97;;;6.75;90.12
48796;BME280;34607;48.520;-1.330;2023-03-03T09:00:15;101050.66;;;6.81;90.52
48796;BME280;34607;48.520;-1.330;2023-03-03T09:02:43;101045.25;;;6.75;90.27
48796;BME280;34607;48.520;-1.330;2023-03-03T09:05:12;101049.97;;;6.85;90.52
48796;BME280;34607;48.520;-1.330;2023-03-03T09:07:40;101017.34;;;6.65;90.34
48796;BME280;34607;48.520;-1.330;2023-03-03T09:10:09;101049.56;;;6.96;90.11
48796;BME280;34607;48.520;-1.330;2023-03-03T09:12:39;101047.47;;;6.87;89.11
48796;BME280;34607;48.520;-1.330;2023-03-03T09:15:13;101051.88;;;6.70;88.88
48796;BME280;34607;48.520;-1.330;2023-03-03T09:17:41;101043.50;;;6.54;88.88
48796;BME280;34607;48.520;-1.330;2023-03-03T09:20:37;101049.47;;;6.34;88.29
48796;BME280;34607;48.520;-1.330;2023-03-03T09:23:24;101055.69;;;6.19;88.82
48796;BME280;34607;48.520;-1.330;2023-03-03T09:25:53;101060.16;;;6.24;89.21
48796;BME280;34607;48.520;-1.330;2023-03-03T09:28:24;101053.94;;;6.38;88.74
48796;BME280;34607;48.520;-1.330;2023-03-03T09:30:52;101065.53;;;6.48;87.86
48796;BME280;34607;48.520;-1.330;2023-03-03T09:33:25;101058.50;;;6.63;87.69
48796;BME280;34607;48.520;-1.330;2023-03-03T09:36:00;101069.25;;;7.36;87.17
48796;BME280;34607;48.520;-1.330;2023-03-03T09:38:30;101061.06;;;8.12;85.03
48796;BME280;34607;48.520;-1.330;2023-03-03T09:41:14;101060.25;;;8.60;83.19
48796;BME280;34607;48.520;-1.330;2023-03-03T09:43:44;101058.16;;;8.74;79.12
48796;BME280;34607;48.520;-1.330;2023-03-03T09:46:22;101061.78;;;8.79;80.52
48796;BME280;34607;48.520;-1.330;2023-03-03T09:49:01;101055.75;;;9.04;80.12
48796;BME280;34607;48.520;-1.330;2023-03-03T09:51:49;101057.81;;;9.40;78.89
48796;BME280;34607;48.520;-1.330;2023-03-03T09:54:39;101060.56;;;9.45;77.39
48796;BME280;34607;48.520;-1.330;2023-03-03T09:57:12;101064.13;;;9.48;77.18
48796;BME280;34607;48.520;-1.330;2023-03-03T10:00:03;101061.91;;;9.61;76.47
48796;BME280;34607;48.520;-1.330;2023-03-03T10:02:44;101068.00;;;9.63;75.84
48796;BME280;34607;48.520;-1.330;2023-03-03T10:05:20;101047.59;;;9.17;75.92
48796;BME280;34607;48.520;-1.330;2023-03-03T10:08:02;101067.34;;;9.15;75.63
48796;BME280;34607;48.520;-1.330;2023-03-03T10:10:49;101074.94;;;9.36;76.22
48796;BME280;34607;48.520;-1.330;2023-03-03T10:13:25;101064.47;;;9.88;75.27
48796;BME280;34607;48.520;-1.330;2023-03-03T10:16:16;101066.75;;;10.06;74.70
48796;BME280;34607;48.520;-1.330;2023-03-03T10:18:54;101065.09;;;10.37;72.79
48796;BME280;34607;48.520;-1.330;2023-03-03T10:21:29;101061.56;;;10.35;73.54
48796;BME280;34607;48.520;-1.330;2023-03-03T10:24:08;101060.28;;;10.49;72.27
48796;BME280;34607;48.520;-1.330;2023-03-03T10:26:57;101064.44;;;10.15;71.62
48796;BME280;34607;48.520;-1.330;2023-03-03T10:29:32;101075.25;;;10.30;72.41
48796;BME280;34607;48.520;-1.330;2023-03-03T10:32:18;101081.28;;;10.31;70.64
48796;BME280;34607;48.520;-1.330;2023-03-03T10:35:02;101075.47;;;10.37;71.55
48796;BME280;34607;48.520;-1.330;2023-03-03T10:37:40;101078.59;;;10.57;70.30
48796;BME280;34607;48.520;-1.330;2023-03-03T10:40:17;101082.72;;;10.50;70.71
48796;BME280;34607;48.520;-1.330;2023-03-03T10:43:15;101080.72;;;11.03;70.64
48796;BME280;34607;48.520;-1.330;2023-03-03T10:46:10;101083.69;;;10.85;69.00
48796;BME280;34607;48.520;-1.330;2023-03-03T10:48:44;101083.03;;;10.93;66.97
48796;BME280;34607;48.520;-1.330;2023-03-03T10:51:21;101083.66;;;10.84;70.28
48796;BME280;34607;48.520;-1.330;2023-03-03T10:54:02;101086.06;;;10.76;69.37
48796;BME280;34607;48.520;-1.330;2023-03-03T10:56:40;101077.88;;;10.62;69.99
48796;BME280;34607;48.520;-1.330;2023-03-03T10:59:26;101076.16;;;10.95;69.60
48796;BME280;34607;48.520;-1.330;2023-03-03T11:01:58;101075.16;;;11.58;69.26
48796;BME280;34607;48.520;-1.330;2023-03-03T11:04:44;101074.84;;;11.82;68.29
48796;BME280;34607;48.520;-1.330;2023-03-03T11:07:21;101064.63;;;12.28;68.35
48796;BME280;34607;48.520;-1.330;2023-03-03T11:10:03;101065.84;;;12.45;66.24
48796;BME280;34607;48.520;-1.330;2023-03-03T11:12:41;101071.22;;;12.12;66.33
48796;BME280;34607;48.520;-1.330;2023-03-03T11:15:33;101072.44;;;11.90;65.70
48796;BME280;34607;48.520;-1.330;2023-03-03T11:18:29;101068.34;;;11.98;66.17
48796;BME280;34607;48.520;-1.330;2023-03-03T11:21:07;101074.69;;;12.12;65.86
48796;BME280;34607;48.520;-1.330;2023-03-03T11:23:48;101079.84;;;12.52;65.63
48796;BME280;34607;48.520;-1.330;2023-03-03T11:26:37;101078.09;;;12.97;65.40
48796;BME280;34607;48.520;-1.330;2023-03-03T11:29:23;101086.53;;;12.85;64.42
48796;BME280;34607;48.520;-1.330;2023-03-03T11:31:55;101083.75;;;13.21;64.04
48796;BME280;34607;48.520;-1.330;2023-03-03T11:34:40;101083.97;;;13.34;63.45
48796;BME280;34607;48.520;-1.330;2023-03-03T11:37:15;101087.47;;;13.36;63.43
48796;BME280;34607;48.520;-1.330;2023-03-03T11:39:48;101083.69;;;13.18;61.91
48796;BME280;34607;48.520;-1.330;2023-03-03T11:42:23;101076.81;;;13.22;62.26
48796;BME280;34607;48.520;-1.330;2023-03-03T11:44:55;101086.75;;;12.96;62.29
48796;BME280;34607;48.520;-1.330;2023-03-03T11:47:29;101075.25;;;12.83;62.59
48796;BME280;34607;48.520;-1.330;2023-03-03T11:50:01;101075.16;;;12.78;62.62
48796;BME280;34607;48.520;-1.330;2023-03-03T11:52:38;101062.75;;;12.63;62.49
48796;BME280;34607;48.520;-1.330;2023-03-03T11:55:11;101056.88;;;12.73;62.50
48796;BME280;34607;48.520;-1.330;2023-03-03T11:57:42;101052.16;;;13.00;61.25
48796;BME280;34607;48.520;-1.330;2023-03-03T12:00:25;101034.72;;;12.94;61.46
48796;BME280;34607;48.520;-1.330;2023-03-03T12:03:08;101058.91;;;13.39;60.25
48796;BME280;34607;48.520;-1.330;2023-03-03T12:05:44;101057.69;;;13.18;59.87
48796;BME280;34607;48.520;-1.330;2023-03-03T12:08:22;101047.34;;;13.21;59.36
48796;BME280;34607;48.520;-1.330;2023-03-03T12:10:57;101044.25;;;12.95;59.21
48796;BME280;34607;48.520;-1.330;2023-03-03T12:13:39;101048.94;;;13.13;59.15
48796;BME280;34607;48.520;-1.330;2023-03-03T12:16:16;101042.69;;;13.55;58.89
48796;BME280;34607;48.520;-1.330;2023-03-03T12:19:13;101030.81;;;13.73;57.82
48796;BME280;34607;48.520;-1.330;2023-03-03T12:21:53;101032.44;;;13.64;56.89
48796;BME280;34607;48.520;-1.330;2023-03-03T12:24:33;101035.00;;;13.63;57.17
48796;BME280;34607;48.520;-1.330;2023-03-03T12:27:13;101032.03;;;13.99;57.55
48796;BME280;34607;48.520;-1.330;2023-03-03T12:29:48;101030.50;;;14.17;56.34
48796;BME280;34607;48.520;-1.330;2023-03-03T12:32:30;101032.22;;;14.13;55.24
48796;BME280;34607;48.520;-1.330;2023-03-03T12:35:05;101029.66;;;14.18;55.27
48796;BME280;34607;48.520;-1.330;2023-03-03T12:37:47;101021.66;;;14.02;54.82
48796;BME280;34607;48.520;-1.330;2023-03-03T12:40:18;101021.81;;;14.15;55.68
48796;BME280;34607;48.520;-1.330;2023-03-03T12:42:58;101022.31;;;14.58;55.39
48796;BME280;34607;48.520;-1.330;2023-03-03T12:45:35;101020.81;;;14.75;54.94
48796;BME280;34607;48.520;-1.330;2023-03-03T12:48:08;101011.56;;;14.30;54.95
48796;BME280;34607;48.520;-1.330;2023-03-03T12:50:48;101010.59;;;14.19;55.02
48796;BME280;34607;48.520;-1.330;2023-03-03T12:53:33;101012.31;;;14.20;53.94
48796;BME280;34607;48.520;-1.330;2023-03-03T12:56:05;101008.84;;;14.18;54.12
48796;BME280;34607;48.520;-1.330;2023-03-03T12:58:39;101012.16;;;14.06;54.92
48796;BME280;34607;48.520;-1.330;2023-03-03T13:01:22;101006.25;;;14.19;54.11
48796;BME280;34607;48.520;-1.330;2023-03-03T13:03:59;101006.16;;;14.13;54.71
48796;BME280;34607;48.520;-1.330;2023-03-03T13:06:32;101011.41;;;14.16;54.53
48796;BME280;34607;48.520;-1.330;2023-03-03T13:09:14;101005.19;;;14.05;53.97
48796;BME280;34607;48.520;-1.330;2023-03-03T13:11:59;100995.53;;;13.96;54.07
48796;BME280;34607;48.520;-1.330;2023-03-03T13:14:34;100998.03;;;13.87;54.20
48796;BME280;34607;48.520;-1.330;2023-03-03T13:17:14;100997.38;;;13.41;53.42
48796;BME280;34607;48.520;-1.330;2023-03-03T13:19:48;100997.16;;;13.28;53.57
48796;BME280;34607;48.520;-1.330;2023-03-03T13:22:34;100985.38;;;13.49;53.56
48796;BME280;34607;48.520;-1.330;2023-03-03T13:25:07;100992.00;;;13.93;54.14
48796;BME280;34607;48.520;-1.330;2023-03-03T13:27:43;100986.22;;;14.17;53.38
48796;BME280;34607;48.520;-1.330;2023-03-03T13:30:19;100975.72;;;14.08;53.32
48796;BME280;34607;48.520;-1.330;2023-03-03T13:32:52;100990.34;;;13.98;53.38
48796;BME280;34607;48.520;-1.330;2023-03-03T13:35:31;100975.75;;;14.11;52.74
48796;BME280;34607;48.520;-1.330;2023-03-03T13:38:01;100970.31;;;13.91;53.41
48796;BME280;34607;48.520;-1.330;2023-03-03T13:40:39;100976.88;;;13.62;53.58
48796;BME280;34607;48.520;-1.330;2023-03-03T13:43:14;100979.69;;;13.79;53.45
48796;BME280;34607;48.520;-1.330;2023-03-03T13:45:51;100987.38;;;13.70;53.59
48796;BME280;34607;48.520;-1.330;2023-03-03T13:48:35;100983.53;;;13.42;53.56
48796;BME280;34607;48.520;-1.330;2023-03-03T13:51:09;100979.66;;;13.18;53.85
48796;BME280;34607;48.520;-1.330;2023-03-03T13:53:48;100969.81;;;12.97;54.61
48796;BME280;34607;48.520;-1.330;2023-03-03T13:56:34;100979.66;;;13.18;54.67
48796;BME280;34607;48.520;-1.330;2023-03-03T13:59:14;100981.25;;;13.10;54.66
48796;BME280;34607;48.520;-1.330;2023-03-03T14:01:54;100992.69;;;13.20;54.41
48796;BME280;34607;48.520;-1.330;2023-03-03T14:04:41;100979.50;;;13.09;53.98
48796;BME280;34607;48.520;-1.330;2023-03-03T14:07:18;100977.75;;;13.06;54.37
48796;BME280;34607;48.520;-1.330;2023-03-03T14:09:54;100972.75;;;13.20;54.48
48796;BME280;34607;48.520;-1.330;2023-03-03T14:12:31;100965.78;;;13.19;55.43
48796;BME280;34607;48.520;-1.330;2023-03-03T14:15:06;100981.88;;;13.47;55.75
48796;BME280;34607;48.520;-1.330;2023-03-03T14:17:50;100964.38;;;13.37;55.37
48796;BME280;34607;48.520;-1.330;2023-03-03T14:20:23;100977.53;;;12.92;56.10
48796;BME280;34607;48.520;-1.330;2023-03-03T14:22:56;100974.06;;;12.92;56.55
48796;BME280;34607;48.520;-1.330;2023-03-03T14:25:24;100975.22;;;13.11;55.86
48796;BME280;34607;48.520;-1.330;2023-03-03T14:27:59;100969.81;;;12.97;56.18
48796;BME280;34607;48.520;-1.330;2023-03-03T14:30:29;100960.22;;;12.95;56.45
48796;BME280;34607;48.520;-1.330;2023-03-03T14:32:59;100963.38;;;12.75;56.29
48796;BME280;34607;48.520;-1.330;2023-03-03T14:35:29;100965.00;;;12.70;56.53
48796;BME280;34607;48.520;-1.330;2023-03-03T14:38:02;100962.25;;;12.62;56.63
48796;BME280;34607;48.520;-1.330;2023-03-03T14:40:31;100954.53;;;12.65;56.78
48796;BME280;34607;48.520;-1.330;2023-03-03T14:42:59;100960.22;;;12.44;57.23
48796;BME280;34607;48.520;-1.330;2023-03-03T14:45:33;100955.47;;;12.70;56.90
48796;BME280;34607;48.520;-1.330;2023-03-03T14:48:10;100959.34;;;12.94;57.25
48796;BME280;34607;48.520;-1.330;2023-03-03T14:50:42;100956.66;;;12.89;57.55
48796;BME280;34607;48.520;-1.330;2023-03-03T14:53:22;100956.53;;;12.83;57.32
48796;BME280;34607;48.520;-1.330;2023-03-03T14:56:14;100950.00;;;12.55;57.55
48796;BME280;34607;48.520;-1.330;2023-03-03T14:58:42;100950.53;;;12.35;58.34
48796;BME280;34607;48.520;-1.330;2023-03-03T15:01:15;100949.13;;;12.53;58.57
48796;BME280;34607;48.520;-1.330;2023-03-03T15:03:47;100932.94;;;12.21;57.85
48796;BME280;34607;48.520;-1.330;2023-03-03T15:06:29;100955.34;;;12.15;57.74
48796;BME280;34607;48.520;-1.330;2023-03-03T15:09:26;100946.06;;;11.87;58.22
48796;BME280;34607;48.520;-1.330;2023-03-03T15:11:55;100954.31;;;12.07;58.88
48796;BME280;34607;48.520;-1.330;2023-03-03T15:14:28;100955.28;;;12.12;58.09
48796;BME280;34607;48.520;-1.330;2023-03-03T15:16:57;100958.69;;;12.10;58.67
48796;BME280;34607;48.520;-1.330;2023-03-03T15:19:45;100949.22;;;12.12;58.52
48796;BME280;34607;48.520;-1.330;2023-03-03T15:22:23;100957.69;;;12.03;59.35
48796;BME280;34607;48.520;-1.330;2023-03-03T15:25:03;100946.56;;;12.09;58.95
48796;BME280;34607;48.520;-1.330;2023-03-03T15:27:39;100952.19;;;11.89;59.99
48796;BME280;34607;48.520;-1.330;2023-03-03T15:30:17;100953.38;;;11.64;61.13
48796;BME280;34607;48.520;-1.330;2023-03-03T15:32:51;100954.47;;;11.75;61.51
48796;BME280;34607;48.520;-1.330;2023-03-03T15:35:28;100957.84;;;11.71;61.08
48796;BME280;34607;48.520;-1.330;2023-03-03T15:38:02;100955.53;;;11.84;60.92
48796;BME280;34607;48.520;-1.330;2023-03-03T15:40:36;100956.16;;;11.73;61.44
48796;BME280;34607;48.520;-1.330;2023-03-03T15:43:13;100958.69;;;11.70;61.88
48796;BME280;34607;48.520;-1.330;2023-03-03T15:45:49;100945.69;;;11.67;62.70
48796;BME280;34607;48.520;-1.330;2023-03-03T15:48:31;100959.75;;;11.78;62.82
48796;BME280;34607;48.520;-1.330;2023-03-03T15:51:06;100963.13;;;11.74;63.53
48796;BME280;34607;48.520;-1.330;2023-03-03T15:53:54;100970.97;;;11.39;63.79
48796;BME280;34607;48.520;-1.330;2023-03-03T15:56:32;100963.94;;;11.34;64.57
48796;BME280;34607;48.520;-1.330;2023-03-03T15:59:39;100970.84;;;11.33;64.27
48796;BME280;34607;48.520;-1.330;2023-03-03T16:02:15;100971.44;;;11.21;64.74
48796;BME280;34607;48.520;-1.330;2023-03-03T16:04:50;100980.19;;;10.90;64.59
48796;BME280;34607;48.520;-1.330;2023-03-03T16:07:27;100976.31;;;10.74;65.02
48796;BME280;34607;48.520;-1.330;2023-03-03T16:10:06;100979.75;;;10.73;65.05
48796;BME280;34607;48.520;-1.330;2023-03-03T16:12:44;100970.56;;;10.51;65.68
48796;BME280;34607;48.520;-1.330;2023-03-03T16:15:34;100993.03;;;10.52;66.13
48796;BME280;34607;48.520;-1.330;2023-03-03T16:18:10;100987.97;;;10.57;66.63
48796;BME280;34607;48.520;-1.330;2023-03-03T16:20:39;100990.03;;;10.37;68.09
48796;BME280;34607;48.520;-1.330;2023-03-03T16:23:19;100993.69;;;10.45;67.56
48796;BME280;34607;48.520;-1.330;2023-03-03T16:26:02;100997.81;;;10.38;67.75
48796;BME280;34607;48.520;-1.330;2023-03-03T16:28:44;100997.59;;;10.30;67.52
48796;BME280;34607;48.520;-1.330;2023-03-03T16:31:21;100986.63;;;10.09;67.59
48796;BME280;34607;48.520;-1.330;2023-03-03T16:33:54;100999.19;;;9.97;68.29
48796;BME280;34607;48.520;-1.330;2023-03-03T16:36:30;101003.09;;;9.82;68.58
48796;BME280;34607;48.520;-1.330;2023-03-03T16:39:02;101013.16;;;9.73;68.60
48796;BME280;34607;48.520;-1.330;2023-03-03T16:41:42;101016.25;;;9.61;68.92
48796;BME280;34607;48.520;-1.330;2023-03-03T16:44:20;101018.94;;;9.64;68.69
48796;BME280;34607;48.520;-1.330;2023-03-03T16:46:55;100968.91;;;9.35;68.58
48796;BME280;34607;48.520;-1.330;2023-03-03T16:49:30;101016.28;;;9.63;68.64
48796;BME280;34607;48.520;-1.330;2023-03-03T16:52:07;101019.53;;;9.55;68.45
48796;BME280;34607;48.520;-1.330;2023-03-03T16:54:39;101024.16;;;9.38;68.85
48796;BME280;34607;48.520;-1.330;2023-03-03T16:57:15;101022.38;;;9.36;68.58
48796;BME280;34607;48.520;-1.330;2023-03-03T16:59:54;101031.56;;;9.28;68.06
48796;BME280;34607;48.520;-1.330;2023-03-03T17:02:51;101033.34;;;9.03;68.56
48796;BME280;34607;48.520;-1.330;2023-03-03T17:05:28;101033.13;;;8.97;68.74
48796;BME280;34607;48.520;-1.330;2023-03-03T17:08:11;101032.28;;;8.96;68.89
48796;BME280;34607;48.520;-1.330;2023-03-03T17:10:48;101034.38;;;8.83;69.08
48796;BME280;34607;48.520;-1.330;2023-03-03T17:13:41;101038.22;;;8.70;69.11
48796;BME280;34607;48.520;-1.330;2023-03-03T17:16:16;101045.25;;;8.50;70.20
48796;BME280;34607;48.520;-1.330;2023-03-03T17:18:58;101038.94;;;8.41;70.23
48796;BME280;34607;48.520;-1.330;2023-03-03T17:21:34;101038.41;;;8.28;70.62
48796;BME280;34607;48.520;-1.330;2023-03-03T17:24:08;101048.63;;;8.24;71.32
48796;BME280;34607;48.520;-1.330;2023-03-03T17:26:45;101021.22;;;8.04;71.36
48796;BME280;34607;48.520;-1.330;2023-03-03T17:29:46;101057.28;;;8.02;72.59
48796;BME280;34607;48.520;-1.330;2023-03-03T17:32:45;101067.72;;;8.07;72.76
48796;BME280;34607;48.520;-1.330;2023-03-03T17:35:28;101070.56;;;8.13;72.27
48796;BME280;34607;48.520;-1.330;2023-03-03T17:38:05;101071.97;;;8.05;72.90
48796;BME280;34607;48.520;-1.330;2023-03-03T17:40:47;101076.13;;;8.01;73.16
48796;BME280;34607;48.520;-1.330;2023-03-03T17:43:20;101079.38;;;7.96;73.41
48796;BME280;34607;48.520;-1.330;2023-03-03T17:45:51;101063.69;;;7.68;73.80
48796;BME280;34607;48.520;-1.330;2023-03-03T17:48:49;101092.97;;;7.71;74.57
48796;BME280;34607;48.520;-1.330;2023-03-03T17:51:32;101097.78;;;7.61;74.82
